createdAt,value
2018-11-02T00:00:13.857Z,10.01
2018-11-02T00:02:38.933Z,10.12
2018-11-02T00:05:04.020Z,9.73
2018-11-02T00:07:29.105Z,9.96
2018-11-02T00:09:54.228Z,9.85
2018-11-02T00:12:19.327Z,9.42
2018-11-02T00:14:44.373Z,9.49
2018-11-02T00:17:09.461Z,9.61
2018-11-02T00:19:35.341Z,9.46
2018-11-02T00:22:01.895Z,9.50
2018-11-02T00:24:27.284Z,9.97
2018-11-02T00:26:52.331Z,9.74
2018-11-02T00:29:17.427Z,10.24
2018-11-02T00:31:42.586Z,9.97
2018-11-02T00:34:07.620Z,9.94
2018-11-02T00:36:32.733Z,10.33
2018-11-02T00:38:57.823Z,10.14
2018-11-02T00:44:16.641Z,10.18
2018-11-02T00:46:41.728Z,9.99
2018-11-02T00:49:07.263Z,9.95
2018-11-02T00:54:09.009Z,10.24
2018-11-02T00:56:34.176Z,10.04
2018-11-02T00:59:18.491Z,10.53
2018-11-02T01:01:43.572Z,10.52
2018-11-02T01:04:08.698Z,10.82
2018-11-02T01:06:33.805Z,10.72
2018-11-02T01:11:36.013Z,10.55
2018-11-02T01:14:01.145Z,10.42
2018-11-02T01:16:26.317Z,10.61
2018-11-02T01:18:51.402Z,10.56
2018-11-02T01:21:16.504Z,10.46
2018-11-02T01:23:41.575Z,10.63
2018-11-02T01:26:07.120Z,10.83
2018-11-02T01:28:32.306Z,10.87
2018-11-02T01:30:57.389Z,10.92
2018-11-02T01:33:37.245Z,10.42
2018-11-02T01:36:02.335Z,10.82
2018-11-02T01:38:27.435Z,10.81
2018-11-02T01:40:52.548Z,10.43
2018-11-02T01:43:17.653Z,10.20
2018-11-02T01:45:42.818Z,10.22
2018-11-02T01:50:47.355Z,10.27
2018-11-02T01:53:12.469Z,10.30
2018-11-02T01:55:37.912Z,10.45
2018-11-02T01:58:03.023Z,10.57
2018-11-02T02:00:28.139Z,10.32
2018-11-02T02:02:53.217Z,10.32
2018-11-02T02:05:18.301Z,10.56
2018-11-02T02:07:43.419Z,10.14
2018-11-02T02:10:08.494Z,9.99
2018-11-02T02:12:33.573Z,10.01
2018-11-02T02:15:17.674Z,9.85
2018-11-02T02:18:01.752Z,10.34
2018-11-02T02:20:26.854Z,10.33
2018-11-02T02:22:51.973Z,10.37
2018-11-02T02:25:17.034Z,10.62
2018-11-02T02:27:42.133Z,10.70
2018-11-02T02:33:04.936Z,10.92
2018-11-02T02:35:30.023Z,10.82
2018-11-02T02:37:55.161Z,10.72
2018-11-02T02:40:39.247Z,10.79
2018-11-02T02:43:04.795Z,10.70
2018-11-02T02:45:30.078Z,10.37
2018-11-02T02:47:55.142Z,10.79
2018-11-02T02:50:20.244Z,10.38
2018-11-02T02:52:45.477Z,10.47
2018-11-02T02:55:10.594Z,10.51
2018-11-02T02:57:36.306Z,10.85
2018-11-02T03:00:01.541Z,10.43
2018-11-02T03:02:26.628Z,10.63
2018-11-02T03:04:51.744Z,10.61
2018-11-02T03:07:16.863Z,10.49
2018-11-02T03:10:00.926Z,10.69
2018-11-02T03:12:44.999Z,10.44
2018-11-02T03:15:10.232Z,10.58
2018-11-02T03:17:35.528Z,10.34
2018-11-02T03:20:00.656Z,10.64
2018-11-02T03:25:02.478Z,10.68
2018-11-02T03:27:27.600Z,10.40
2018-11-02T03:29:52.749Z,10.71
2018-11-02T03:32:17.874Z,10.86
2018-11-02T03:34:42.965Z,10.82
2018-11-02T03:37:08.115Z,10.71
2018-11-02T03:39:33.243Z,10.62
2018-11-02T03:41:58.368Z,10.54
2018-11-02T03:44:23.444Z,10.50
2018-11-02T03:46:48.530Z,10.31
2018-11-02T03:49:13.666Z,10.47
2018-11-02T03:51:38.723Z,10.51
2018-11-02T03:54:03.944Z,10.30
2018-11-02T03:56:31.318Z,10.27
2018-11-02T03:58:54.151Z,10.30
2018-11-02T04:01:19.276Z,10.57
2018-11-02T04:03:44.339Z,10.08
2018-11-02T04:06:09.457Z,10.56
2018-11-02T04:08:34.569Z,10.34
2018-11-02T04:11:18.629Z,10.09
2018-11-02T04:13:43.699Z,10.49
2018-11-02T04:16:08.823Z,10.39
2018-11-02T04:21:10.048Z,10.31
2018-11-02T04:23:35.176Z,10.18
2018-11-02T04:26:00.257Z,9.86
2018-11-02T04:28:25.373Z,10.18
2018-11-02T04:30:50.521Z,10.19
2018-11-02T04:33:15.539Z,10.45
2018-11-02T04:35:40.723Z,10.32
2018-11-02T04:38:05.868Z,10.42
2018-11-02T04:40:30.963Z,10.33
2018-11-02T04:42:56.068Z,10.23
2018-11-02T04:45:39.886Z,10.43
2018-11-02T04:48:05.022Z,10.35
2018-11-02T04:50:30.126Z,10.73
2018-11-02T04:52:55.201Z,10.61
2018-11-02T04:55:20.312Z,10.76
2018-11-02T04:58:04.332Z,10.91
2018-11-02T05:00:29.504Z,10.90
2018-11-02T05:02:54.653Z,10.41
2018-11-02T05:05:19.704Z,10.49
2018-11-02T05:07:44.805Z,10.77
2018-11-02T05:10:10.463Z,10.26
2018-11-02T05:12:35.542Z,10.44
2018-11-02T05:15:00.636Z,10.54
2018-11-02T05:17:25.755Z,10.64
2018-11-02T05:19:50.809Z,10.53
2018-11-02T05:24:54.915Z,10.60
2018-11-02T05:27:19.992Z,10.71
2018-11-02T05:29:45.476Z,10.71
2018-11-02T05:32:10.580Z,10.93
2018-11-02T05:34:35.720Z,10.92
2018-11-02T05:37:00.817Z,10.80
2018-11-02T05:39:25.951Z,10.52
2018-11-02T05:42:09.977Z,10.81
2018-11-02T05:44:35.034Z,10.77
2018-11-02T05:47:00.304Z,10.73
2018-11-02T05:52:20.906Z,10.39
2018-11-02T05:54:45.998Z,10.61
2018-11-02T05:57:11.301Z,10.45
2018-11-02T05:59:36.497Z,10.59
2018-11-02T06:02:01.651Z,10.45
2018-11-02T06:04:45.680Z,10.55
2018-11-02T06:07:10.737Z,10.55
2018-11-02T06:09:35.800Z,10.70
2018-11-02T06:12:00.887Z,10.65
2018-11-02T06:14:26.023Z,10.80
2018-11-02T06:16:51.391Z,10.86
2018-11-02T06:21:55.792Z,10.67
2018-11-02T06:24:20.976Z,10.62
2018-11-02T06:27:04.959Z,10.80
2018-11-02T06:29:30.057Z,10.94
2018-11-02T06:31:55.180Z,10.92
2018-11-02T06:34:20.271Z,10.94
2018-11-02T06:36:45.343Z,11.15
2018-11-02T06:39:29.447Z,10.85
2018-11-02T06:41:54.547Z,11.19
2018-11-02T06:44:19.675Z,11.00
2018-11-02T06:46:44.805Z,11.14
2018-11-02T06:49:09.933Z,10.91
2018-11-02T06:51:35.038Z,11.15
2018-11-02T06:56:39.867Z,11.29
2018-11-02T06:59:04.966Z,11.30
2018-11-02T07:04:14.346Z,11.34
2018-11-02T07:06:39.415Z,11.43
2018-11-02T07:09:05.012Z,11.78
2018-11-02T07:11:30.100Z,11.64
2018-11-02T07:13:55.347Z,11.63
2018-11-02T07:16:20.446Z,11.51
2018-11-02T07:18:45.529Z,11.55
2018-11-02T07:21:10.714Z,11.71
2018-11-02T07:23:35.800Z,11.83
2018-11-02T07:26:19.946Z,11.75
2018-11-02T07:28:56.478Z,11.80
2018-11-02T07:31:22.557Z,11.70
2018-11-02T07:33:47.664Z,11.61
2018-11-02T07:36:12.728Z,11.58
2018-11-02T07:38:56.817Z,11.80
2018-11-02T07:41:21.927Z,11.67
2018-11-02T07:43:47.055Z,11.96
2018-11-02T07:46:12.134Z,12.02
2018-11-02T07:48:37.214Z,11.86
2018-11-02T07:51:02.344Z,12.02
2018-11-02T07:53:27.411Z,12.04
2018-11-02T07:56:11.498Z,11.93
2018-11-02T07:58:36.594Z,12.24
2018-11-02T08:01:01.709Z,12.06
2018-11-02T08:03:26.795Z,12.39
2018-11-02T08:05:51.902Z,12.12
2018-11-02T08:08:17.033Z,12.00
2018-11-02T08:10:42.099Z,12.37
2018-11-02T08:13:07.345Z,12.43
2018-11-02T08:15:51.374Z,12.49
2018-11-02T08:18:35.482Z,12.43
2018-11-02T08:23:16.536Z,12.79
2018-11-02T08:25:41.704Z,12.85
2018-11-02T08:28:25.758Z,12.66
2018-11-02T08:31:09.914Z,12.87
2018-11-02T08:33:34.976Z,12.86
2018-11-02T08:36:00.056Z,12.65
2018-11-02T08:38:25.208Z,12.43
2018-11-02T08:40:50.287Z,12.66
2018-11-02T08:43:15.460Z,12.74
2018-11-02T08:45:40.553Z,12.66
2018-11-02T08:48:05.907Z,12.67
2018-11-02T08:50:31.008Z,12.67
2018-11-02T08:53:07.807Z,12.76
2018-11-02T08:55:32.941Z,12.80
2018-11-02T08:57:58.252Z,12.73
2018-11-02T09:00:23.079Z,12.84
2018-11-02T09:02:48.211Z,13.06
2018-11-02T09:05:13.398Z,12.89
2018-11-02T09:07:39.014Z,12.87
2018-11-02T09:10:04.143Z,13.05
2018-11-02T09:12:29.259Z,13.09
2018-11-02T09:14:54.387Z,12.80
2018-11-02T09:17:38.398Z,12.84
2018-11-02T09:20:03.558Z,13.05
2018-11-02T09:22:28.671Z,12.97
2018-11-02T09:24:53.859Z,12.95
2018-11-02T09:27:18.986Z,13.06
2018-11-02T09:30:02.971Z,12.98
2018-11-02T09:32:28.084Z,12.70
2018-11-02T09:34:53.219Z,13.06
2018-11-02T09:37:18.334Z,12.97
2018-11-02T09:39:43.434Z,13.17
2018-11-02T09:42:08.518Z,12.87
2018-11-02T09:44:33.627Z,13.49
2018-11-02T09:46:58.695Z,13.30
2018-11-02T09:49:28.282Z,13.20
2018-11-02T09:51:53.380Z,13.09
2018-11-02T09:54:18.411Z,12.96
2018-11-02T09:56:43.502Z,13.20
2018-11-02T09:59:08.567Z,13.22
2018-11-02T10:01:33.703Z,13.22
2018-11-02T10:03:58.783Z,13.28
2018-11-02T10:06:23.876Z,13.30
2018-11-02T10:09:08.048Z,13.28
2018-11-02T10:11:33.004Z,12.86
2018-11-02T10:13:58.097Z,13.07
2018-11-02T10:16:23.198Z,13.26
2018-11-02T10:18:48.274Z,13.15
2018-11-02T10:21:13.371Z,12.85
2018-11-02T10:23:38.502Z,13.07
2018-11-02T10:26:03.565Z,12.82
2018-11-02T10:28:28.668Z,13.25
2018-11-02T10:30:53.734Z,13.10
2018-11-02T10:33:18.829Z,12.99
2018-11-02T10:35:44.371Z,13.38
2018-11-02T10:38:09.480Z,13.48
2018-11-02T10:40:35.304Z,13.17
2018-11-02T10:43:03.939Z,13.20
2018-11-02T10:45:48.251Z,13.20
2018-11-02T10:48:13.328Z,13.27
2018-11-02T10:50:38.440Z,12.93
2018-11-02T10:53:03.643Z,12.91
2018-11-02T10:55:28.902Z,12.97
2018-11-02T10:58:12.953Z,13.30
2018-11-02T11:00:56.951Z,13.07
2018-11-02T11:03:22.270Z,12.84
2018-11-02T11:05:47.433Z,13.02
2018-11-02T11:08:12.477Z,13.06
2018-11-02T11:10:37.571Z,13.19
2018-11-02T11:13:03.110Z,13.07
2018-11-02T11:15:27.802Z,13.46
2018-11-02T11:17:52.924Z,12.77
2018-11-02T11:20:18.009Z,13.27
2018-11-02T11:22:43.233Z,13.48
2018-11-02T11:25:10.787Z,13.55
2018-11-02T11:27:35.915Z,13.49
2018-11-02T11:30:01.041Z,13.63
2018-11-02T11:32:26.197Z,14.19
2018-11-02T11:35:02.527Z,14.46
2018-11-02T11:37:27.614Z,14.50
2018-11-02T11:39:52.990Z,16.18
2018-11-02T11:42:36.780Z,15.27
2018-11-02T11:45:01.937Z,16.28
2018-11-02T11:47:27.053Z,13.99
2018-11-02T11:49:52.149Z,14.12
2018-11-02T11:52:17.247Z,13.63
2018-11-02T11:54:42.462Z,13.66
2018-11-02T11:57:08.038Z,13.42
2018-11-02T11:59:33.150Z,13.26
2018-11-02T12:01:58.230Z,13.54
2018-11-02T12:04:23.360Z,14.98
2018-11-02T12:06:48.425Z,14.19
2018-11-02T12:09:13.516Z,13.52
2018-11-02T12:11:38.618Z,14.40
2018-11-02T12:14:03.729Z,15.80
2018-11-02T12:16:28.923Z,14.67
2018-11-02T12:19:12.960Z,14.07
2018-11-02T12:21:38.151Z,14.29
2018-11-02T12:24:03.195Z,18.95
2018-11-02T12:26:28.275Z,15.71
2018-11-02T12:28:53.463Z,17.62
2018-11-02T12:31:18.479Z,19.74
2018-11-02T12:33:43.704Z,15.76
2018-11-02T12:36:08.829Z,15.09
2018-11-02T12:38:33.976Z,16.60
2018-11-02T12:40:59.125Z,15.42
2018-11-02T12:43:24.325Z,14.36
2018-11-02T12:45:49.429Z,13.38
2018-11-02T12:48:14.588Z,13.64
2018-11-02T12:50:39.713Z,13.79
2018-11-02T12:53:04.820Z,13.45
2018-11-02T12:55:29.941Z,13.65
2018-11-02T12:57:55.043Z,13.07
2018-11-02T13:00:39.099Z,14.59
2018-11-02T13:03:04.242Z,14.75
2018-11-02T13:05:29.341Z,14.09
2018-11-02T13:07:54.456Z,13.73
2018-11-02T13:10:20.729Z,13.95
2018-11-02T13:12:45.847Z,14.03
2018-11-02T13:15:13.112Z,13.40
2018-11-02T13:17:38.476Z,13.63
2018-11-02T13:20:06.222Z,18.66
2018-11-02T13:22:31.286Z,20.33
2018-11-02T13:24:56.406Z,21.40
2018-11-02T13:27:21.532Z,22.00
2018-11-02T13:29:46.688Z,24.43
2018-11-02T13:32:11.771Z,23.66
2018-11-02T13:34:55.856Z,22.01
2018-11-02T13:37:21.333Z,20.95
2018-11-02T13:40:05.462Z,20.50
2018-11-02T13:42:30.546Z,20.51
2018-11-02T13:44:55.694Z,20.75
2018-11-02T13:47:20.809Z,21.37
2018-11-02T13:50:04.631Z,17.89
2018-11-02T13:52:29.707Z,18.60
2018-11-02T13:54:54.802Z,16.14
2018-11-02T13:57:22.326Z,15.90
2018-11-02T13:59:47.467Z,15.48
2018-11-02T14:02:12.569Z,16.87
2018-11-02T14:04:37.771Z,18.09
2018-11-02T14:07:02.883Z,18.36
2018-11-02T14:09:47.000Z,18.94
2018-11-02T14:12:12.088Z,20.58
2018-11-02T14:14:37.199Z,17.37
2018-11-02T14:17:02.352Z,16.61
2018-11-02T14:19:27.417Z,17.47
2018-11-02T14:21:52.553Z,17.23
2018-11-02T14:24:17.637Z,19.03
2018-11-02T14:26:42.727Z,20.52
2018-11-02T14:29:07.839Z,18.41
2018-11-02T14:31:33.000Z,17.07
2018-11-02T14:33:58.110Z,17.13
2018-11-02T14:36:23.194Z,17.05
2018-11-02T14:38:48.366Z,18.03
2018-11-02T14:41:13.552Z,20.55
2018-11-02T14:43:38.622Z,20.60
2018-11-02T14:46:03.768Z,18.15
2018-11-02T14:48:28.856Z,16.58
2018-11-02T14:50:53.971Z,17.13
2018-11-02T14:53:19.120Z,16.61
2018-11-02T14:56:02.893Z,17.55
2018-11-02T14:58:28.038Z,17.30
2018-11-02T15:00:53.218Z,16.62
2018-11-02T15:03:30.146Z,16.52
2018-11-02T15:05:55.301Z,16.57
2018-11-02T15:11:16.018Z,15.71
2018-11-02T15:13:41.031Z,14.74
2018-11-02T15:16:06.245Z,15.26
2018-11-02T15:18:43.500Z,15.00
2018-11-02T15:21:30.209Z,14.88
2018-11-02T15:23:55.436Z,13.93
2018-11-02T15:26:20.592Z,14.95
2018-11-02T15:28:45.681Z,14.17
2018-11-02T15:31:10.743Z,14.23
2018-11-02T15:33:35.913Z,14.50
2018-11-02T15:36:01.022Z,13.86
2018-11-02T15:38:26.211Z,14.02
2018-11-02T15:40:51.343Z,14.34
2018-11-02T15:43:16.444Z,14.53
2018-11-02T15:46:00.516Z,14.33
2018-11-02T15:48:25.626Z,13.69
2018-11-02T15:50:50.782Z,13.51
2018-11-02T15:53:15.916Z,13.34
2018-11-02T15:55:40.961Z,13.47
2018-11-02T15:58:06.212Z,14.33
2018-11-02T16:00:31.359Z,14.41
2018-11-02T16:02:56.512Z,14.34
2018-11-02T16:05:21.623Z,14.20
2018-11-02T16:07:46.733Z,13.65
2018-11-02T16:10:12.601Z,13.17
2018-11-02T16:12:37.748Z,13.84
2018-11-02T16:15:02.915Z,14.34
2018-11-02T16:17:28.056Z,14.24
2018-11-02T16:19:53.174Z,14.25
2018-11-02T16:22:18.271Z,14.18
2018-11-02T16:24:43.400Z,14.01
2018-11-02T16:27:08.557Z,14.00
2018-11-02T16:29:33.658Z,13.54
2018-11-02T16:31:58.776Z,13.56
2018-11-02T16:34:24.056Z,13.84
2018-11-02T16:36:49.041Z,13.21
2018-11-02T16:39:14.168Z,13.29
2018-11-02T16:41:39.726Z,13.12
2018-11-02T16:44:04.991Z,13.84
2018-11-02T16:46:30.036Z,13.72
2018-11-02T16:48:55.205Z,13.94
2018-11-02T16:51:20.297Z,13.96
2018-11-02T16:53:45.424Z,14.26
2018-11-02T16:56:10.573Z,14.02
2018-11-02T16:58:35.859Z,14.13
2018-11-02T17:01:00.969Z,12.91
2018-11-02T17:03:26.183Z,13.11
2018-11-02T17:05:51.377Z,13.33
2018-11-02T17:08:16.383Z,12.74
2018-11-02T17:10:41.516Z,12.49
2018-11-02T17:13:07.113Z,12.22
2018-11-02T17:15:32.300Z,12.68
2018-11-02T17:17:57.416Z,12.77
2018-11-02T17:20:22.515Z,13.48
2018-11-02T17:22:47.959Z,13.43
2018-11-02T17:25:15.228Z,13.54
2018-11-02T17:27:40.589Z,12.89
2018-11-02T17:30:06.405Z,13.07
2018-11-02T17:32:31.571Z,13.51
2018-11-02T17:35:15.687Z,13.11
2018-11-02T17:40:17.271Z,13.28
2018-11-02T17:42:42.834Z,13.38
2018-11-02T17:45:08.740Z,13.28
2018-11-02T17:47:33.924Z,13.21
2018-11-02T17:49:59.017Z,13.12
2018-11-02T17:52:24.817Z,13.18
2018-11-02T17:54:49.949Z,12.90
2018-11-02T17:59:54.374Z,12.83
2018-11-02T18:02:19.535Z,12.99
2018-11-02T18:04:44.662Z,12.93
2018-11-02T18:07:09.796Z,12.83
2018-11-02T18:09:34.929Z,12.69
2018-11-02T18:12:00.086Z,12.73
2018-11-02T18:14:25.230Z,12.63
2018-11-02T18:16:50.309Z,12.70
2018-11-02T18:19:15.445Z,12.64
2018-11-02T18:21:40.746Z,12.42
2018-11-02T18:24:24.960Z,12.56
2018-11-02T18:26:50.105Z,12.46
2018-11-02T18:29:15.284Z,12.37
2018-11-02T18:31:40.367Z,12.37
2018-11-02T18:36:42.572Z,12.28
2018-11-02T18:39:13.040Z,12.30
2018-11-02T18:41:38.202Z,12.13
2018-11-02T18:44:03.380Z,12.35
2018-11-02T18:46:28.531Z,12.09
2018-11-02T18:51:30.392Z,12.01
2018-11-02T18:53:55.492Z,12.09
2018-11-02T18:56:20.611Z,12.12
2018-11-02T18:58:45.721Z,11.95
2018-11-02T19:01:10.839Z,11.97
2018-11-02T19:03:36.028Z,11.98
2018-11-02T19:06:01.135Z,11.78
2018-11-02T19:08:26.332Z,11.74
2018-11-02T19:10:51.457Z,11.72
2018-11-02T19:13:16.631Z,11.51
2018-11-02T19:15:41.875Z,11.53
2018-11-02T19:18:06.941Z,11.56
2018-11-02T19:20:32.249Z,11.65
2018-11-02T19:22:57.214Z,11.67
2018-11-02T19:25:22.339Z,11.45
2018-11-02T19:27:47.684Z,11.33
2018-11-02T19:30:13.738Z,11.44
2018-11-02T19:32:57.916Z,11.50
2018-11-02T19:35:23.213Z,11.30
2018-11-02T19:37:48.257Z,11.30
2018-11-02T19:40:32.329Z,11.21
2018-11-02T19:42:57.489Z,11.33
2018-11-02T19:45:23.003Z,11.13
2018-11-02T19:48:06.835Z,10.98
2018-11-02T19:50:32.084Z,11.08
2018-11-02T19:52:57.137Z,11.16
2018-11-02T19:55:22.389Z,10.90
2018-11-02T19:58:06.379Z,10.94
2018-11-02T20:00:31.529Z,10.78
2018-11-02T20:03:15.567Z,10.50
2018-11-02T20:05:40.714Z,10.59
2018-11-02T20:08:06.133Z,10.75
2018-11-02T20:13:09.861Z,10.63
2018-11-02T20:15:34.997Z,10.56
2018-11-02T20:18:00.207Z,10.62
2018-11-02T20:20:25.397Z,10.29
2018-11-02T20:22:50.585Z,10.58
2018-11-02T20:25:17.196Z,10.52
2018-11-02T20:27:42.363Z,10.55
2018-11-02T20:32:56.448Z,10.42
2018-11-02T20:35:21.639Z,10.46
2018-11-02T20:37:46.757Z,10.64
2018-11-02T20:40:31.662Z,10.59
2018-11-02T20:42:56.801Z,10.50
2018-11-02T20:45:21.943Z,10.52
2018-11-02T20:47:49.576Z,10.57
2018-11-02T20:50:14.698Z,10.73
2018-11-02T20:52:39.954Z,10.76
2018-11-02T20:55:05.094Z,10.63
2018-11-02T20:57:31.164Z,10.67
2018-11-02T20:59:56.211Z,10.74
2018-11-02T21:02:21.380Z,10.66
2018-11-02T21:04:46.601Z,10.70
2018-11-02T21:07:11.808Z,10.58
2018-11-02T21:09:37.195Z,10.51
2018-11-02T21:12:02.078Z,10.54
2018-11-02T21:14:27.455Z,10.57
2018-11-02T21:16:52.421Z,10.61
2018-11-02T21:19:17.978Z,10.48
2018-11-02T21:21:43.186Z,10.62
2018-11-02T21:24:08.574Z,10.62
2018-11-02T21:26:33.698Z,10.47
2018-11-02T21:28:59.021Z,10.46
2018-11-02T21:31:24.038Z,10.59
2018-11-02T21:33:49.274Z,10.69
2018-11-02T21:36:14.395Z,10.66
2018-11-02T21:41:16.926Z,10.53
2018-11-02T21:43:42.117Z,10.52
2018-11-02T21:46:07.396Z,10.30
2018-11-02T21:48:32.549Z,10.11
2018-11-02T21:50:57.646Z,10.33
2018-11-02T21:53:22.927Z,10.53
2018-11-02T21:55:48.070Z,10.61
2018-11-02T21:58:13.235Z,10.46
2018-11-02T22:00:38.336Z,10.37
2018-11-02T22:03:03.428Z,10.42
2018-11-02T22:05:28.993Z,10.24
2018-11-02T22:07:54.051Z,10.40
2018-11-02T22:10:19.344Z,10.31
2018-11-02T22:12:44.528Z,10.26
2018-11-02T22:17:47.273Z,10.28
2018-11-02T22:22:49.648Z,10.36
2018-11-02T22:27:51.509Z,10.26
2018-11-02T22:30:17.643Z,10.49
2018-11-02T22:32:42.772Z,10.07
2018-11-02T22:35:07.939Z,10.16
2018-11-02T22:37:33.102Z,9.92
2018-11-02T22:39:58.302Z,10.16
2018-11-02T22:42:23.465Z,10.02
2018-11-02T22:44:48.598Z,10.20
2018-11-02T22:47:13.823Z,10.21
2018-11-02T22:49:38.945Z,10.32
2018-11-02T22:52:04.097Z,10.20
2018-11-02T22:54:29.250Z,9.95
2018-11-02T22:56:54.401Z,9.63
2018-11-02T22:59:19.519Z,9.89
2018-11-02T23:02:03.639Z,9.83
2018-11-02T23:04:28.845Z,9.77
2018-11-02T23:06:53.991Z,9.92
2018-11-02T23:09:19.163Z,9.72
2018-11-02T23:11:44.296Z,9.73
2018-11-02T23:14:09.489Z,9.55
2018-11-02T23:16:34.596Z,9.69
2018-11-02T23:18:59.736Z,9.63
2018-11-02T23:21:24.938Z,9.73
2018-11-02T23:23:50.039Z,9.60
2018-11-02T23:26:15.333Z,9.56
2018-11-02T23:28:40.607Z,9.71
2018-11-02T23:31:05.727Z,9.73
2018-11-02T23:33:49.933Z,9.67
2018-11-02T23:36:15.084Z,9.62
2018-11-02T23:38:40.211Z,9.73
2018-11-02T23:41:05.375Z,9.53
2018-11-02T23:43:30.546Z,9.31
2018-11-02T23:45:55.671Z,9.40
2018-11-02T23:48:21.054Z,9.51
2018-11-02T23:50:47.802Z,9.70
2018-11-02T23:53:12.915Z,9.75
2018-11-02T23:55:38.017Z,9.69
2018-11-02T23:58:03.266Z,9.67
